createdAt,value
2023-04-23T00:00:05.226Z,85.05
2023-04-23T00:05:16.447Z,85.58
2023-04-23T00:10:19.469Z,85.91
2023-04-23T00:15:23.745Z,85.47
2023-04-23T00:20:26.508Z,84.85
2023-04-23T00:25:29.286Z,84.60
2023-04-23T00:30:33.639Z,83.53
2023-04-23T00:35:36.381Z,82.74
2023-04-23T00:40:39.319Z,82.01
2023-04-23T00:45:43.681Z,81.65
2023-04-23T00:50:47.562Z,81.96
2023-04-23T00:55:50.457Z,82.18
2023-04-23T01:00:55.009Z,83.06
2023-04-23T01:05:58.212Z,83.26
2023-04-23T01:11:01.537Z,81.22
2023-04-23T01:16:05.886Z,81.23
2023-04-23T01:21:11.581Z,81.45
2023-04-23T01:26:15.883Z,81.63
2023-04-23T01:31:19.733Z,81.94
2023-04-23T01:36:23.663Z,81.03
2023-04-23T01:41:29.509Z,81.37
2023-04-23T01:46:32.982Z,81.59
2023-04-23T01:51:36.341Z,80.86
2023-04-23T01:56:40.547Z,80.25
2023-04-23T02:01:45.751Z,79.84
2023-04-23T02:06:51.016Z,80.84
2023-04-23T02:11:55.269Z,79.29
2023-04-23T02:16:58.707Z,78.19
2023-04-23T02:22:01.715Z,78.59
2023-04-23T02:27:05.956Z,77.76
2023-04-23T02:32:08.746Z,80.06
2023-04-23T02:37:12.347Z,78.90
2023-04-23T02:42:16.740Z,78.92
2023-04-23T02:47:19.592Z,78.78
2023-04-23T02:52:22.438Z,78.40
2023-04-23T02:57:26.725Z,76.88
2023-04-23T03:02:29.813Z,77.33
2023-04-23T03:07:32.962Z,76.03
2023-04-23T03:12:37.164Z,74.78
2023-04-23T03:17:40.174Z,74.25
2023-04-23T03:22:43.076Z,74.34
2023-04-23T03:27:47.348Z,74.51
2023-04-23T03:32:51.610Z,74.65
2023-04-23T03:37:54.798Z,73.64
2023-04-23T03:43:00.952Z,73.19
2023-04-23T03:48:21.565Z,73.53
2023-04-23T03:53:24.516Z,73.33
2023-04-23T03:58:47.038Z,73.31
2023-04-23T04:03:50.023Z,73.24
2023-04-23T04:08:53.036Z,73.34
2023-04-23T04:13:57.234Z,72.93
2023-04-23T04:19:01.423Z,73.23
2023-04-23T04:24:04.852Z,74.49
2023-04-23T04:29:09.313Z,74.50
2023-04-23T04:34:14.648Z,74.42
2023-04-23T04:39:17.418Z,74.38
2023-04-23T04:44:21.526Z,74.01
2023-04-23T04:49:24.378Z,73.63
2023-04-23T04:54:27.252Z,73.81
2023-04-23T04:59:31.409Z,73.42
2023-04-23T05:04:34.284Z,73.46
2023-04-23T05:09:37.059Z,73.55
2023-04-23T05:14:41.329Z,73.45
2023-04-23T05:19:44.228Z,73.13
2023-04-23T05:24:47.150Z,73.17
2023-04-23T05:29:51.287Z,73.37
2023-04-23T05:34:54.136Z,72.89
2023-04-23T05:39:57.477Z,72.20
2023-04-23T05:45:01.605Z,71.83
2023-04-23T05:50:04.588Z,72.21
2023-04-23T05:55:08.297Z,71.81
2023-04-23T06:00:14.105Z,72.07
2023-04-23T06:05:17.047Z,72.04
2023-04-23T06:10:20.205Z,71.90
2023-04-23T06:15:27.056Z,70.70
2023-04-23T06:20:30.704Z,70.37
2023-04-23T06:25:33.535Z,70.50
2023-04-23T06:30:37.704Z,70.08
2023-04-23T06:35:40.736Z,69.35
2023-04-23T06:40:43.587Z,68.12
2023-04-23T06:45:47.790Z,66.59
2023-04-23T06:50:50.982Z,66.37
2023-04-23T06:55:53.787Z,65.97
2023-04-23T07:00:59.861Z,65.02
2023-04-23T07:06:05.202Z,64.53
2023-04-23T07:11:08.431Z,62.19
2023-04-23T07:16:13.760Z,61.47
2023-04-23T07:21:16.634Z,60.11
2023-04-23T07:26:19.461Z,57.97
2023-04-23T07:31:23.878Z,58.87
2023-04-23T07:36:27.739Z,57.28
2023-04-23T07:41:30.787Z,54.28
2023-04-23T07:46:34.963Z,52.56
2023-04-23T07:51:37.802Z,49.71
2023-04-23T07:56:42.716Z,47.36
2023-04-23T08:01:47.899Z,48.09
2023-04-23T08:06:51.020Z,46.49
2023-04-23T08:11:54.552Z,47.40
2023-04-23T08:16:58.838Z,45.89
2023-04-23T08:22:01.809Z,44.49
2023-04-23T08:27:04.784Z,46.01
2023-04-23T08:32:08.953Z,44.79
2023-04-23T08:37:23.221Z,45.90
2023-04-23T08:42:39.588Z,46.51
2023-04-23T08:47:44.376Z,46.99
2023-04-23T08:52:50.880Z,47.28
2023-04-23T08:57:54.096Z,47.00
2023-04-23T09:02:59.794Z,48.47
2023-04-23T09:08:02.904Z,48.34
2023-04-23T09:13:06.052Z,47.94
2023-04-23T09:18:10.795Z,48.03
2023-04-23T09:23:16.136Z,45.79
2023-04-23T09:28:19.006Z,46.02
2023-04-23T09:33:23.368Z,46.34
2023-04-23T09:38:26.740Z,46.28
2023-04-23T09:43:31.746Z,46.33
2023-04-23T09:48:43.251Z,46.95
2023-04-23T09:53:46.485Z,44.26
2023-04-23T09:58:49.446Z,45.17
2023-04-23T10:03:54.589Z,45.44
2023-04-23T10:08:58.123Z,46.41
2023-04-23T10:14:01.734Z,48.23
2023-04-23T10:19:08.896Z,49.12
2023-04-23T10:24:12.506Z,49.82
2023-04-23T10:29:17.284Z,50.24
2023-04-23T10:34:22.029Z,50.18
2023-04-23T10:39:30.044Z,49.88
2023-04-23T10:44:56.504Z,50.60
2023-04-23T10:49:58.836Z,48.52
2023-04-23T10:55:02.002Z,45.43
2023-04-23T11:00:06.118Z,44.28
2023-04-23T11:05:10.603Z,44.62
2023-04-23T11:10:14.651Z,45.18
2023-04-23T11:15:21.192Z,45.22
2023-04-23T11:20:25.380Z,43.79
2023-04-23T11:25:30.334Z,44.14
2023-04-23T11:30:33.667Z,45.31
2023-04-23T11:35:40.813Z,46.72
2023-04-23T11:40:48.490Z,47.28
2023-04-23T11:45:51.342Z,44.98
2023-04-23T11:50:55.784Z,43.01
2023-04-23T11:55:59.571Z,42.78
2023-04-23T12:01:02.502Z,43.07
2023-04-23T12:06:07.782Z,42.51
2023-04-23T12:11:13.070Z,42.08
2023-04-23T12:16:15.894Z,41.98
2023-04-23T12:21:20.170Z,43.51
2023-04-23T12:26:24.945Z,44.13
2023-04-23T12:31:29.651Z,43.81
2023-04-23T12:36:34.855Z,42.98
2023-04-23T12:41:37.861Z,41.70
2023-04-23T12:46:40.751Z,41.64
2023-04-23T12:51:45.267Z,41.41
2023-04-23T12:56:48.118Z,39.55
2023-04-23T13:01:51.603Z,40.02
2023-04-23T13:06:56.594Z,41.11
2023-04-23T13:12:00.144Z,42.61
2023-04-23T13:17:03.488Z,42.20
2023-04-23T13:22:08.071Z,40.30
2023-04-23T13:27:11.216Z,40.22
2023-04-23T13:32:14.546Z,39.99
2023-04-23T13:37:18.750Z,39.42
2023-04-23T13:42:21.566Z,39.22
2023-04-23T13:47:25.101Z,38.72
2023-04-23T13:52:29.314Z,39.57
2023-04-23T13:57:32.198Z,37.67
2023-04-23T14:02:35.367Z,38.85
2023-04-23T14:07:39.810Z,35.93
2023-04-23T14:12:42.685Z,33.74
2023-04-23T14:17:45.940Z,34.05
2023-04-23T14:22:56.250Z,36.44
2023-04-23T14:28:04.984Z,38.61
2023-04-23T14:33:07.924Z,40.06
2023-04-23T14:38:12.265Z,42.38
2023-04-23T14:43:16.150Z,42.64
2023-04-23T14:48:19.317Z,43.32
2023-04-23T14:53:23.484Z,48.81
2023-04-23T14:58:26.412Z,49.15
2023-04-23T15:03:29.395Z,49.66
2023-04-23T15:08:33.715Z,46.31
2023-04-23T15:13:45.338Z,41.98
2023-04-23T15:18:48.099Z,43.17
2023-04-23T15:23:53.720Z,42.47
2023-04-23T15:28:58.156Z,43.96
2023-04-23T15:34:01.069Z,44.59
2023-04-23T15:39:05.902Z,43.30
2023-04-23T15:44:12.099Z,43.61
2023-04-23T15:49:15.126Z,57.71
2023-04-23T15:54:19.271Z,71.43
2023-04-23T15:59:22.060Z,77.51
2023-04-23T16:04:25.083Z,81.02
2023-04-23T16:09:29.419Z,83.05
2023-04-23T16:14:32.479Z,83.68
2023-04-23T16:19:35.383Z,84.53
2023-04-23T16:24:39.510Z,85.55
2023-04-23T16:29:42.658Z,84.90
2023-04-23T16:34:45.624Z,84.40
2023-04-23T16:39:49.784Z,83.76
2023-04-23T16:44:52.596Z,83.60
2023-04-23T16:49:55.489Z,83.69
2023-04-23T16:54:59.692Z,83.04
2023-04-23T17:00:05.011Z,79.96
2023-04-23T17:05:09.217Z,80.39
2023-04-23T17:10:15.336Z,80.02
2023-04-23T17:15:18.346Z,78.85
2023-04-23T17:20:22.032Z,77.16
2023-04-23T17:25:26.235Z,77.86
2023-04-23T17:30:29.333Z,74.32
2023-04-23T17:35:32.132Z,71.87
2023-04-23T17:40:37.446Z,71.91
2023-04-23T17:45:41.156Z,69.59
2023-04-23T17:50:44.806Z,68.12
2023-04-23T17:55:49.012Z,67.22
2023-04-23T18:00:51.891Z,69.53
2023-04-23T18:05:54.989Z,76.85
2023-04-23T18:10:59.202Z,79.00
2023-04-23T18:16:02.081Z,78.15
2023-04-23T18:21:05.835Z,78.46
2023-04-23T18:26:10.240Z,78.07
2023-04-23T18:31:13.449Z,77.14
2023-04-23T18:36:25.006Z,77.45
2023-04-23T18:41:30.121Z,78.01
2023-04-23T18:46:33.172Z,77.70
2023-04-23T18:51:39.681Z,78.42
2023-04-23T18:56:43.861Z,80.60
2023-04-23T19:01:47.991Z,82.63
2023-04-23T19:06:50.824Z,84.65
2023-04-23T19:11:55.411Z,85.10
2023-04-23T19:16:58.301Z,85.64
2023-04-23T19:22:03.349Z,86.11
2023-04-23T19:27:07.797Z,88.13
2023-04-23T19:32:10.713Z,87.76
2023-04-23T19:37:13.643Z,88.01
2023-04-23T19:42:18.291Z,87.11
2023-04-23T19:47:21.178Z,87.03
2023-04-23T19:52:26.802Z,87.16
2023-04-23T19:57:31.108Z,87.28
2023-04-23T20:02:34.095Z,87.92
2023-04-23T20:07:37.194Z,87.20
2023-04-23T20:12:41.625Z,87.33
2023-04-23T20:17:44.422Z,87.51
2023-04-23T20:22:47.279Z,87.71
2023-04-23T20:27:51.922Z,88.12
2023-04-23T20:32:54.812Z,87.50
2023-04-23T20:37:57.791Z,86.82
2023-04-23T20:43:01.969Z,87.11
2023-04-23T20:48:05.466Z,87.54
2023-04-23T20:53:08.600Z,87.00
2023-04-23T20:58:13.353Z,86.96
2023-04-23T21:03:16.626Z,86.79
2023-04-23T21:08:19.923Z,85.73
2023-04-23T21:13:24.703Z,85.09
2023-04-23T21:18:27.920Z,84.26
2023-04-23T21:23:31.143Z,83.94
2023-04-23T21:28:37.015Z,83.30
2023-04-23T21:33:40.050Z,82.44
2023-04-23T21:38:43.270Z,82.02
2023-04-23T21:43:47.452Z,81.68
2023-04-23T21:48:53.464Z,80.99
2023-04-23T21:53:56.304Z,80.25
2023-04-23T21:59:00.514Z,80.27
2023-04-23T22:04:04.191Z,77.89
2023-04-23T22:09:07.379Z,77.83
2023-04-23T22:14:11.636Z,76.94
2023-04-23T22:19:16.054Z,77.15
2023-04-23T22:24:18.824Z,77.06
2023-04-23T22:29:23.082Z,76.38
2023-04-23T22:34:25.967Z,76.46
2023-04-23T22:39:28.801Z,77.02
2023-04-23T22:44:32.909Z,77.69
2023-04-23T22:49:35.944Z,77.66
2023-04-23T22:54:39.064Z,76.50
2023-04-23T22:59:43.576Z,75.65
2023-04-23T23:04:46.766Z,74.84
2023-04-23T23:09:50.129Z,74.55
2023-04-23T23:14:54.286Z,72.85
2023-04-23T23:19:57.118Z,72.62
2023-04-23T23:25:00.170Z,71.73
2023-04-23T23:30:05.835Z,71.11
2023-04-23T23:35:09.291Z,69.84
2023-04-23T23:40:12.690Z,68.63
2023-04-23T23:45:17.068Z,67.18
2023-04-23T23:50:20.074Z,64.92
2023-04-23T23:55:22.830Z,64.83
